Time;durP1;ratioP1;P1;durP2;ratioP2;P2;SDS_P1;SDS_P2;PMS_P1;PMS_P2;Temp;Humidity;BMP_temperature;BMP_pressure;BME280_temperature;BME280_humidity;BME280_pressure;Samples;Min_cycle;Max_cycle;Signal;HPM_P1;HPM_P2
2023/10/17 00:01:21;;;;;;;11.32;6.20;;;23.70;49.00;;;;;;6228260;27;83044;-59
2023/10/17 00:07:22;;;;;;;10.18;5.72;;;23.70;49.00;;;;;;6227941;27;81963;-60
2023/10/17 00:10:23;;;;;;;14.20;6.75;;;23.70;49.30;;;;;;6227134;27;82350;-60
2023/10/17 00:16:25;;;;;;;10.05;6.25;;;23.70;48.80;;;;;;6222901;27;80758;-62
2023/10/17 00:19:28;;;;;;;12.27;6.18;;;23.70;48.70;;;;;;6202882;28;80118;-60
2023/10/17 00:22:29;;;;;;;9.27;5.60;;;23.70;48.80;;;;;;6207986;28;81288;-60
2023/10/17 00:25:29;;;;;;;11.20;6.13;;;23.70;48.70;;;;;;6220309;27;85102;-60
2023/10/17 00:28:30;;;;;;;10.85;6.32;;;23.70;48.70;;;;;;6216611;28;80428;-60
2023/10/17 00:31:30;;;;;;;12.02;7.15;;;23.70;48.70;;;;;;6216381;28;80865;-60
2023/10/17 00:34:34;;;;;;;11.55;6.55;;;23.60;48.70;;;;;;6202596;28;80612;-60
2023/10/17 00:37:37;;;;;;;9.65;5.22;;;23.60;48.70;;;;;;6215691;28;80716;-62
2023/10/17 00:40:45;;;;;;;11.82;5.68;;;23.60;48.80;;;;;;6201412;28;81469;-61
2023/10/17 00:43:46;;;;;;;13.43;6.15;;;23.60;48.90;;;;;;6217386;28;83738;-60
2023/10/17 00:46:49;;;;;;;10.30;5.90;;;23.60;49.00;;;;;;6227158;28;85731;-60
2023/10/17 00:49:50;;;;;;;14.80;6.32;;;23.70;49.00;;;;;;6238799;28;82274;-58
2023/10/17 00:52:51;;;;;;;10.13;5.97;;;23.60;48.90;;;;;;6204362;28;80705;-58
2023/10/17 00:55:55;;;;;;;11.27;5.70;;;23.60;49.00;;;;;;6214947;28;80783;-59
2023/10/17 00:58:57;;;;;;;11.85;6.00;;;23.60;48.90;;;;;;6218791;28;82044;-60
2023/10/17 01:01:58;;;;;;;13.05;6.10;;;23.60;48.80;;;;;;6224521;28;83766;-59
2023/10/17 01:04:59;;;;;;;13.30;7.30;;;23.60;48.70;;;;;;6238560;27;80262;-59
2023/10/17 01:07:59;;;;;;;10.20;6.35;;;23.60;48.70;;;;;;6225983;28;79989;-59
2023/10/17 01:11:01;;;;;;;11.63;6.10;;;23.60;48.60;;;;;;6225731;28;83395;-60
2023/10/17 01:14:02;;;;;;;10.48;5.97;;;23.60;48.70;;;;;;6238529;27;82069;-58
2023/10/17 01:17:13;;;;;;;9.68;5.72;;;23.60;48.80;;;;;;6221871;28;81457;-59
2023/10/17 01:20:20;;;;;;;11.73;5.57;;;23.60;48.80;;;;;;6215599;28;80334;-59
2023/10/17 01:23:23;;;;;;;13.80;6.07;;;23.60;48.90;;;;;;6215104;28;83444;-59
2023/10/17 01:26:24;;;;;;;12.43;6.05;;;23.60;48.70;;;;;;6209088;28;80287;-59
2023/10/17 01:29:24;;;;;;;11.77;6.45;;;23.60;49.40;;;;;;6203703;28;81823;-59
2023/10/17 01:32:27;;;;;;;8.65;5.60;;;23.60;48.60;;;;;;6200663;28;83533;-58
2023/10/17 01:35:28;;;;;;;12.77;6.90;;;23.60;48.50;;;;;;6201739;28;83543;-60
2023/10/17 01:38:28;;;;;;;9.02;5.18;;;23.60;48.50;;;;;;6202696;28;80464;-61
2023/10/17 01:41:29;;;;;;;10.45;5.95;;;23.60;48.40;;;;;;6202641;28;81872;-60
2023/10/17 01:44:29;;;;;;;11.57;6.53;;;23.60;48.40;;;;;;6203405;28;80817;-60
2023/10/17 01:47:30;;;;;;;9.45;5.72;;;23.60;48.40;;;;;;6204594;28;80533;-60
2023/10/17 01:50:32;;;;;;;17.35;7.13;;;23.60;48.40;;;;;;6213805;28;83492;-60
2023/10/17 01:53:33;;;;;;;9.23;6.15;;;23.60;48.30;;;;;;6210147;28;81513;-60
2023/10/17 01:56:38;;;;;;;12.48;6.43;;;23.60;48.30;;;;;;6206739;27;82092;-59
2023/10/17 01:59:39;;;;;;;11.07;6.70;;;23.60;48.20;;;;;;6217627;28;80707;-61
2023/10/17 02:02:42;;;;;;;13.45;6.25;;;23.60;48.30;;;;;;6217146;28;83232;-60
2023/10/17 02:05:44;;;;;;;13.38;5.95;;;23.60;48.40;;;;;;6211113;28;82188;-61
2023/10/17 02:08:45;;;;;;;9.50;5.32;;;23.60;48.60;;;;;;6216281;28;82096;-60
2023/10/17 02:11:50;;;;;;;13.18;6.70;;;23.50;48.60;;;;;;6218825;28;83611;-61
2023/10/17 02:14:51;;;;;;;11.37;6.20;;;23.60;48.90;;;;;;6225536;27;80802;-60
2023/10/17 02:17:52;;;;;;;11.55;6.50;;;23.50;48.50;;;;;;6216644;28;83733;-60
2023/10/17 02:20:52;;;;;;;12.55;6.50;;;23.60;48.50;;;;;;6201436;28;81894;-59
2023/10/17 02:23:53;;;;;;;10.80;5.93;;;23.60;48.50;;;;;;6201841;28;80531;-61
2023/10/17 02:26:59;;;;;;;12.85;7.07;;;23.60;48.40;;;;;;6222730;27;80388;-60
2023/10/17 02:30:00;;;;;;;11.15;6.28;;;23.60;48.50;;;;;;6224751;28;80414;-60
2023/10/17 02:33:02;;;;;;;13.48;6.28;;;23.60;48.40;;;;;;6225070;27;80445;-60
2023/10/17 02:36:09;;;;;;;10.82;6.80;;;23.60;48.40;;;;;;6223235;28;82790;-60
2023/10/17 02:39:09;;;;;;;9.63;6.20;;;23.60;48.80;;;;;;6223403;28;83452;-59
2023/10/17 02:42:10;;;;;;;10.50;6.22;;;23.60;48.40;;;;;;6225662;27;82385;-59
2023/10/17 02:45:10;;;;;;;10.40;6.00;;;23.60;48.40;;;;;;6225535;28;81242;-60
2023/10/17 02:48:23;;;;;;;10.85;6.30;;;23.60;48.40;;;;;;6225155;28;80472;-59
2023/10/17 02:54:27;;;;;;;12.05;5.95;;;23.60;48.50;;;;;;6224818;27;80254;-60
2023/10/17 02:57:32;;;;;;;11.90;6.68;;;23.60;48.30;;;;;;6202215;28;87540;-59
2023/10/17 03:00:34;;;;;;;11.60;6.47;;;23.60;48.30;;;;;;6205056;28;80279;-61
2023/10/17 03:03:35;;;;;;;11.25;6.88;;;23.60;48.20;;;;;;6199760;28;83180;-60
2023/10/17 03:06:37;;;;;;;10.07;6.35;;;23.60;48.20;;;;;;6198112;28;83426;-61
2023/10/17 03:09:39;;;;;;;10.80;6.65;;;23.60;48.20;;;;;;6214205;28;81290;-60
2023/10/17 03:12:53;;;;;;;10.25;6.22;;;23.60;48.10;;;;;;6204855;28;80766;-58
2023/10/17 03:16:14;;;;;;;10.50;6.07;;;23.60;48.10;;;;;;6229424;28;83061;-60
2023/10/17 03:19:15;;;;;;;11.10;6.13;;;23.50;48.20;;;;;;6223565;28;81638;-59
2023/10/17 03:22:20;;;;;;;10.35;6.85;;;23.50;48.40;;;;;;6209400;27;80578;-60
2023/10/17 03:25:20;;;;;;;9.35;6.40;;;23.60;48.40;;;;;;6204646;28;85218;-61
2023/10/17 03:28:22;;;;;;;12.05;6.93;;;23.60;48.20;;;;;;6226786;28;83162;-61
2023/10/17 03:31:26;;;;;;;9.88;5.90;;;23.60;48.10;;;;;;6231539;28;81032;-61
2023/10/17 03:34:37;;;;;;;11.65;6.32;;;23.60;48.00;;;;;;6228368;28;80386;-60
2023/10/17 03:37:39;;;;;;;12.32;6.55;;;23.70;48.00;;;;;;6236566;28;83911;-59
2023/10/17 03:40:41;;;;;;;10.40;5.82;;;23.60;47.80;;;;;;6223565;28;81888;-60
2023/10/17 03:43:49;;;;;;;11.05;6.13;;;23.70;47.60;;;;;;6226738;27;80594;-59
2023/10/17 03:46:50;;;;;;;9.32;6.03;;;23.70;47.60;;;;;;6227086;28;81670;-58
2023/10/17 03:49:55;;;;;;;11.50;6.40;;;23.80;47.50;;;;;;6225544;28;82710;-59
2023/10/17 03:52:56;;;;;;;10.57;5.65;;;23.80;48.20;;;;;;6227047;28;80281;-60
2023/10/17 03:56:00;;;;;;;12.10;7.00;;;23.80;47.40;;;;;;6226361;27;80379;-60
2023/10/17 04:02:18;;;;;;;11.93;6.10;;;23.80;47.30;;;;;;6237537;27;80897;-60
2023/10/17 04:05:22;;;;;;;12.97;6.63;;;23.90;47.30;;;;;;6225227;27;82888;-61
2023/10/17 04:08:30;;;;;;;18.42;6.18;;;23.80;47.50;;;;;;6223617;27;80885;-65
2023/10/17 04:11:36;;;;;;;9.75;5.75;;;23.90;48.10;;;;;;6224660;27;81140;-63
2023/10/17 04:14:52;;;;;;;10.90;5.40;;;23.90;47.60;;;;;;6227681;28;87570;-63
2023/10/17 04:17:52;;;;;;;11.48;6.10;;;23.90;47.90;;;;;;6225537;28;80289;-61
2023/10/17 04:21:18;;;;;;;11.57;6.13;;;23.90;47.90;;;;;;6222637;28;80922;-61
2023/10/17 04:27:32;;;;;;;12.27;6.05;;;23.90;48.00;;;;;;6221010;28;84448;-64
2023/10/17 04:30:46;;;;;;;11.70;5.90;;;23.90;47.80;;;;;;6226580;28;80747;-71
2023/10/17 04:33:48;;;;;;;22.38;6.78;;;23.90;47.60;;;;;;6211098;28;80326;-70
2023/10/17 04:36:53;;;;;;;11.23;6.38;;;24.00;47.80;;;;;;6228640;28;81770;-68
2023/10/17 04:39:57;;;;;;;15.02;7.00;;;24.00;47.80;;;;;;6219464;28;80773;-64
2023/10/17 04:46:17;;;;;;;16.42;5.90;;;24.00;48.20;;;;;;6217401;28;81754;-66
2023/10/17 04:49:19;;;;;;;12.95;6.07;;;24.00;47.30;;;;;;6216860;28;80435;-64
2023/10/17 04:52:29;;;;;;;15.05;6.20;;;24.00;47.90;;;;;;6221131;28;80776;-65
2023/10/17 04:55:40;;;;;;;14.18;5.75;;;24.10;47.60;;;;;;6215119;27;80949;-64
2023/10/17 04:59:02;;;;;;;14.50;6.05;;;24.00;47.70;;;;;;6221120;28;81450;-65
2023/10/17 05:05:45;;;;;;;10.73;5.80;;;24.00;47.50;;;;;;6202059;27;80821;-60
2023/10/17 05:09:26;;;;;;;14.27;6.38;;;24.00;47.70;;;;;;6230380;27;80719;-62
2023/10/17 06:18:52;;;;;;;14.00;8.02;;;23.60;45.30;;;;;;6204205;27;80311;-60
2023/10/17 06:31:34;;;;;;;13.23;7.18;;;23.60;44.90;;;;;;6224237;27;80872;-59
2023/10/17 06:34:35;;;;;;;13.90;7.07;;;23.60;45.00;;;;;;6207831;28;80664;-62
2023/10/17 06:37:36;;;;;;;15.73;7.38;;;23.50;44.80;;;;;;6215017;27;81557;-60
2023/10/17 06:40:45;;;;;;;10.82;6.15;;;23.60;44.80;;;;;;6203244;28;80106;-59
2023/10/17 06:43:49;;;;;;;15.43;6.72;;;23.60;44.80;;;;;;6216271;28;82530;-60
2023/10/17 06:46:55;;;;;;;13.45;6.82;;;23.60;44.80;;;;;;6198702;28;82156;-61
2023/10/17 06:50:17;;;;;;;;;;;23.60;44.80;;;;;;6216988;28;80318;-60
2023/10/17 06:53:27;;;;;;;12.32;6.35;;;23.60;44.60;;;;;;6247873;28;80416;-61
2023/10/17 06:56:28;;;;;;;13.90;7.05;;;23.60;44.50;;;;;;6215865;28;80304;-63
2023/10/17 06:59:35;;;;;;;12.82;6.68;;;23.60;44.50;;;;;;6237433;28;80392;-61
2023/10/17 07:02:41;;;;;;;12.48;6.85;;;23.60;44.40;;;;;;6223581;28;80464;-61
2023/10/17 07:06:24;;;;;;;15.05;7.57;;;23.60;44.60;;;;;;6225236;28;82252;-63
2023/10/17 07:09:16;;;;;;;12.38;7.03;;;23.60;44.60;;;;;;6227015;28;83700;-61
2023/10/17 07:12:17;;;;;;;12.45;6.60;;;23.60;44.60;;;;;;6226439;27;80909;-62
2023/10/17 07:15:20;;;;;;;14.90;7.53;;;23.70;44.80;;;;;;6221090;28;82726;-62
2023/10/17 07:18:44;;;;;;;13.88;6.78;;;23.70;44.90;;;;;;6221008;28;79978;-61
2023/10/17 07:25:02;;;;;;;12.00;6.97;;;23.70;44.90;;;;;;6215845;28;80498;-62
2023/10/17 07:28:02;;;;;;;13.35;6.60;;;23.70;44.80;;;;;;6218856;28;85685;-62
2023/10/17 07:31:03;;;;;;;11.32;6.15;;;23.70;44.70;;;;;;6222045;28;81084;-61
2023/10/17 07:34:22;;;;;;;12.35;5.43;;;23.70;44.50;;;;;;6222991;28;80703;-66
2023/10/17 07:37:23;;;;;;;9.60;5.47;;;23.70;44.10;;;;;;6235365;27;80746;-66
2023/10/17 07:40:31;;;;;;;9.35;5.30;;;23.70;44.70;;;;;;6223979;27;80594;-64
2023/10/17 07:43:33;;;;;;;12.02;5.72;;;23.70;44.40;;;;;;6221176;27;80375;-62
2023/10/17 07:46:34;;;;;;;12.48;5.78;;;23.70;44.20;;;;;;6235910;27;80715;-65
2023/10/17 07:49:37;;;;;;;11.35;5.72;;;23.70;42.80;;;;;;6223628;27;81552;-63
2023/10/17 07:52:38;;;;;;;12.80;5.63;;;23.80;43.40;;;;;;6230393;28;81533;-63
2023/10/17 07:55:46;;;;;;;10.02;5.50;;;23.80;43.60;;;;;;6225706;28;80454;-64
2023/10/17 07:58:46;;;;;;;9.02;5.07;;;23.90;42.80;;;;;;6219590;28;80125;-65
2023/10/17 08:01:49;;;;;;;10.45;5.53;;;23.80;43.10;;;;;;6221710;28;80479;-62
2023/10/17 08:04:50;;;;;;;11.65;5.65;;;23.90;43.10;;;;;;6226423;27;80897;-63
2023/10/17 08:08:01;;;;;;;10.30;4.70;;;23.90;42.70;;;;;;6226915;27;80723;-63
2023/10/17 08:11:19;;;;;;;10.40;4.93;;;24.00;42.60;;;;;;6217225;28;80644;-62
2023/10/17 08:14:22;;;;;;;17.90;9.18;;;24.00;43.20;;;;;;6215923;28;82585;-62
2023/10/17 08:17:23;;;;;;;56.25;25.20;;;24.00;43.30;;;;;;6209830;28;80906;-64
2023/10/17 08:20:45;;;;;;;70.95;34.35;;;24.10;43.90;;;;;;6218978;27;82851;-65
2023/10/17 08:23:46;;;;;;;63.30;30.45;;;24.10;42.50;;;;;;6224048;28;83434;-62
2023/10/17 08:27:12;;;;;;;59.85;27.77;;;24.10;43.10;;;;;;6206112;28;83446;-66
2023/10/17 08:30:14;;;;;;;46.60;22.85;;;24.20;42.50;;;;;;6213173;27;83019;-66
2023/10/17 08:33:17;;;;;;;36.55;18.40;;;24.20;42.40;;;;;;6201796;28;84185;-63
2023/10/17 08:36:23;;;;;;;31.88;17.50;;;24.20;42.10;;;;;;6208232;28;83453;-63
2023/10/17 08:39:51;;;;;;;26.85;12.90;;;24.20;42.40;;;;;;6213446;28;83259;-64
2023/10/17 08:42:49;;;;;;;28.33;11.63;;;24.30;42.70;;;;;;6228650;27;87391;-64
2023/10/17 08:45:50;;;;;;;21.38;9.35;;;24.30;42.80;;;;;;6231084;27;84702;-62
2023/10/17 08:48:56;;;;;;;20.20;9.65;;;24.30;42.60;;;;;;6232596;28;83086;-64
2023/10/17 08:51:56;;;;;;;15.98;8.05;;;24.30;42.50;;;;;;6227362;27;80756;-64
2023/10/17 08:54:57;;;;;;;14.57;5.97;;;24.30;42.60;;;;;;6226581;28;80592;-58
2023/10/17 08:57:59;;;;;;;11.75;5.45;;;24.30;41.80;;;;;;6218458;27;80534;-64
2023/10/17 09:01:14;;;;;;;10.40;5.38;;;24.30;42.00;;;;;;6221437;28;81976;-63
2023/10/17 09:04:14;;;;;;;11.93;6.00;;;24.30;42.70;;;;;;6222608;28;81202;-61
2023/10/17 09:07:31;;;;;;;9.85;4.85;;;24.40;42.70;;;;;;6224235;27;80742;-60
2023/10/17 09:10:38;;;;;;;10.77;5.28;;;24.50;41.90;;;;;;6217566;28;80540;-61
2023/10/17 09:16:48;;;;;;;10.95;4.90;;;24.60;42.60;;;;;;6227517;28;81600;-61
2023/10/17 09:19:52;;;;;;;12.07;5.03;;;24.60;43.30;;;;;;6229051;27;80398;-59
2023/10/17 09:22:54;;;;;;;11.43;4.70;;;24.70;44.50;;;;;;6216970;27;80602;-60
2023/10/17 09:25:54;;;;;;;8.38;4.50;;;24.70;45.00;;;;;;6222593;27;81589;-60
2023/10/17 09:28:55;;;;;;;8.00;4.20;;;24.70;47.10;;;;;;6228890;28;80851;-62
2023/10/17 09:31:55;;;;;;;12.23;4.82;;;24.70;48.00;;;;;;6205211;28;81210;-60
2023/10/17 09:34:57;;;;;;;10.07;4.50;;;24.70;44.80;;;;;;6217361;28;80016;-61
2023/10/17 09:37:59;;;;;;;7.32;3.53;;;24.70;47.10;;;;;;6204461;28;80386;-61
2023/10/17 09:40:59;;;;;;;10.38;3.78;;;24.70;47.60;;;;;;6200168;28;81284;-63
2023/10/17 09:44:00;;;;;;;9.05;3.95;;;24.80;49.40;;;;;;6203587;28;80642;-62
2023/10/17 09:47:00;;;;;;;8.77;4.30;;;24.80;48.10;;;;;;6203357;28;81064;-62
2023/10/17 09:50:01;;;;;;;8.85;3.35;;;24.80;48.10;;;;;;6207736;28;80764;-63
2023/10/17 09:53:01;;;;;;;6.68;3.15;;;24.80;46.70;;;;;;6204321;28;80423;-62
2023/10/17 09:56:03;;;;;;;6.05;3.42;;;24.80;46.40;;;;;;6222513;28;87264;-64
2023/10/17 09:59:03;;;;;;;9.30;3.78;;;24.80;47.50;;;;;;6217919;28;80592;-66
2023/10/17 10:02:04;;;;;;;7.03;3.47;;;24.80;47.10;;;;;;6203990;28;81332;-63
2023/10/17 10:05:04;;;;;;;9.23;3.97;;;24.70;47.10;;;;;;6208364;28;80619;-64
2023/10/17 10:08:05;;;;;;;6.47;3.63;;;24.70;46.90;;;;;;6203594;28;80102;-67
2023/10/17 10:11:06;;;;;;;6.47;3.83;;;24.70;46.60;;;;;;6225209;27;81472;-67
2023/10/17 10:14:11;;;;;;;7.25;3.20;;;24.70;46.80;;;;;;6219718;27;81646;-66
2023/10/17 10:17:14;;;;;;;7.97;3.30;;;24.70;43.90;;;;;;6236322;27;80539;-64
2023/10/17 10:20:15;;;;;;;6.30;3.33;;;24.60;45.50;;;;;;6219140;28;85657;-66
2023/10/17 10:23:16;;;;;;;4.95;2.83;;;24.60;45.50;;;;;;6221921;28;80656;-67
2023/10/17 10:26:19;;;;;;;5.85;2.85;;;24.60;45.80;;;;;;6208866;28;80615;-67
2023/10/17 10:29:20;;;;;;;6.35;3.03;;;24.50;46.20;;;;;;6216782;28;80353;-68
2023/10/17 10:32:21;;;;;;;5.55;2.55;;;24.50;45.50;;;;;;6225013;28;81085;-67
2023/10/17 10:35:21;;;;;;;9.10;2.78;;;24.50;45.20;;;;;;6227704;28;80438;-66
2023/10/17 10:38:22;;;;;;;6.60;3.03;;;24.50;45.30;;;;;;6222178;27;86460;-66
2023/10/17 10:41:23;;;;;;;4.68;2.50;;;24.50;45.80;;;;;;6225238;28;80540;-66
2023/10/17 10:44:23;;;;;;;4.88;2.67;;;24.50;45.60;;;;;;6224371;28;82475;-65
2023/10/17 10:47:25;;;;;;;4.07;2.78;;;24.50;45.70;;;;;;6225199;27;80401;-67
2023/10/17 10:50:26;;;;;;;4.38;2.90;;;24.50;46.30;;;;;;6226184;27;80395;-67
2023/10/17 10:53:29;;;;;;;6.85;2.75;;;24.60;46.10;;;;;;6220160;27;80492;-67
2023/10/17 10:56:30;;;;;;;4.70;2.90;;;24.60;45.50;;;;;;6225600;27;80322;-67
2023/10/17 10:59:30;;;;;;;7.00;3.10;;;24.60;45.90;;;;;;6225140;28;81089;-68
2023/10/17 11:02:31;;;;;;;6.18;2.60;;;24.60;45.60;;;;;;6225040;28;79958;-69
2023/10/17 11:05:32;;;;;;;3.58;2.45;;;24.60;46.30;;;;;;6222251;27;81353;-69
2023/10/17 11:08:34;;;;;;;5.72;2.80;;;24.60;46.10;;;;;;6228478;27;81507;-69
2023/10/17 11:11:35;;;;;;;5.05;2.50;;;24.60;46.00;;;;;;6230229;28;80453;-68
2023/10/17 11:14:35;;;;;;;5.07;2.67;;;24.60;45.60;;;;;;6226129;28;80859;-69
2023/10/17 11:17:36;;;;;;;6.55;2.83;;;24.60;46.00;;;;;;6236867;27;84412;-67
2023/10/17 11:20:40;;;;;;;4.20;2.50;;;24.60;45.30;;;;;;6224445;28;81694;-67
2023/10/17 11:23:40;;;;;;;4.88;2.83;;;24.70;45.80;;;;;;6223924;28;80801;-67
2023/10/17 11:26:41;;;;;;;6.50;2.88;;;24.70;45.70;;;;;;6211693;28;81153;-67
2023/10/17 11:29:42;;;;;;;6.43;3.05;;;24.60;46.00;;;;;;6239252;28;80717;-64
2023/10/17 11:32:45;;;;;;;5.13;2.20;;;24.60;46.30;;;;;;6232131;27;80508;-67
2023/10/17 11:35:45;;;;;;;5.18;2.22;;;24.60;47.10;;;;;;6223903;27;81316;-66
2023/10/17 11:38:46;;;;;;;4.40;2.25;;;24.60;46.30;;;;;;6235631;27;80414;-65
2023/10/17 11:41:47;;;;;;;5.97;2.40;;;24.60;46.20;;;;;;6228791;28;80880;-71
2023/10/17 11:44:48;;;;;;;4.65;2.53;;;24.60;46.00;;;;;;6226261;27;82224;-68
2023/10/17 11:47:50;;;;;;;6.30;2.45;;;24.60;46.20;;;;;;6228224;27;80302;-68
2023/10/17 11:50:51;;;;;;;3.95;2.08;;;24.60;46.00;;;;;;6228622;27;81268;-60
2023/10/17 11:53:51;;;;;;;4.88;2.63;;;24.60;46.00;;;;;;6225781;27;80847;-60
2023/10/17 11:56:52;;;;;;;3.88;1.92;;;24.60;45.80;;;;;;6219239;28;82953;-61
2023/10/17 11:59:52;;;;;;;4.57;2.30;;;24.50;45.80;;;;;;6219553;27;80371;-59
2023/10/17 12:02:53;;;;;;;4.65;2.40;;;24.40;45.50;;;;;;6224141;27;80783;-60
2023/10/17 12:05:56;;;;;;;3.35;2.03;;;24.40;46.50;;;;;;6221129;28;80534;-61
2023/10/17 12:08:57;;;;;;;5.22;2.75;;;24.40;46.10;;;;;;6217985;28;82229;-66
2023/10/17 12:11:58;;;;;;;3.78;2.10;;;24.40;45.70;;;;;;6220034;27;81243;-64
2023/10/17 12:14:59;;;;;;;4.13;2.38;;;24.30;46.80;;;;;;6235004;27;80959;-65
2023/10/17 12:18:00;;;;;;;3.17;2.15;;;24.40;46.80;;;;;;6204388;28;81154;-67
2023/10/17 12:21:01;;;;;;;5.97;2.03;;;24.40;47.10;;;;;;6217083;28;81296;-66
2023/10/17 12:24:11;;;;;;;6.63;2.25;;;24.50;47.90;;;;;;6216154;28;80360;-67
2023/10/17 12:27:15;;;;;;;3.53;2.22;;;24.60;48.10;;;;;;6213577;28;81895;-69
2023/10/17 12:30:22;;;;;;;5.40;2.17;;;24.70;47.90;;;;;;6210655;28;80503;-68
2023/10/17 12:33:23;;;;;;;4.28;2.60;;;24.80;48.30;;;;;;6205855;28;80417;-69
2023/10/17 12:36:24;;;;;;;6.20;2.60;;;24.90;48.80;;;;;;6206544;28;80581;-69
2023/10/17 12:39:27;;;;;;;3.90;2.35;;;24.90;48.70;;;;;;6204762;28;80344;-68
2023/10/17 12:42:29;;;;;;;9.43;3.22;;;24.90;48.80;;;;;;6215281;28;85137;-66
2023/10/17 12:45:30;;;;;;;3.17;2.22;;;24.90;49.00;;;;;;6209012;27;81532;-67
2023/10/17 12:48:31;;;;;;;3.47;2.25;;;24.90;49.70;;;;;;6210264;28;83353;-64
2023/10/17 12:51:32;;;;;;;4.05;2.35;;;24.90;49.60;;;;;;6210210;28;80469;-65
2023/10/17 12:54:33;;;;;;;4.15;2.40;;;24.80;49.30;;;;;;6221128;28;80603;-63
2023/10/17 12:57:36;;;;;;;3.65;2.20;;;24.80;49.00;;;;;;6222073;27;81508;-66
2023/10/17 13:00:36;;;;;;;6.30;3.03;;;24.80;49.30;;;;;;6227943;27;80756;-65
2023/10/17 13:03:38;;;;;;;4.15;2.15;;;24.80;49.50;;;;;;6223277;28;81501;-64
2023/10/17 13:06:38;;;;;;;5.07;2.20;;;24.80;49.50;;;;;;6221326;28;80968;-65
2023/10/17 13:09:39;;;;;;;6.45;2.35;;;24.80;49.50;;;;;;6224863;27;80601;-64
2023/10/17 13:12:42;;;;;;;5.85;2.53;;;24.80;48.80;;;;;;6231842;28;80552;-66
2023/10/17 13:15:43;;;;;;;4.00;2.08;;;24.90;49.20;;;;;;6226061;28;80202;-64
2023/10/17 13:18:47;;;;;;;3.65;1.95;;;25.00;49.40;;;;;;6223454;28;80914;-64
2023/10/17 13:21:47;;;;;;;3.95;1.90;;;25.00;48.60;;;;;;6223254;28;80634;-63
2023/10/17 13:24:50;;;;;;;5.68;2.20;;;25.00;48.80;;;;;;6218055;28;83445;-64
2023/10/17 13:27:50;;;;;;;3.85;2.28;;;25.10;49.10;;;;;;6215111;28;81534;-63
2023/10/17 13:30:51;;;;;;;4.32;2.42;;;25.10;48.80;;;;;;6223952;28;80841;-60
2023/10/17 13:33:55;;;;;;;6.68;2.50;;;25.10;48.90;;;;;;6214828;28;81602;-61
2023/10/17 13:36:55;;;;;;;4.72;2.20;;;25.10;48.40;;;;;;6225877;28;89959;-63
2023/10/17 13:39:56;;;;;;;6.10;2.65;;;25.20;49.20;;;;;;6219814;28;80187;-66
2023/10/17 13:42:57;;;;;;;5.05;2.42;;;25.20;49.10;;;;;;6214297;28;81642;-62
2023/10/17 13:46:00;;;;;;;3.33;2.30;;;25.20;48.90;;;;;;6220520;27;80094;-62
2023/10/17 13:49:02;;;;;;;3.00;2.20;;;25.30;49.00;;;;;;6212171;28;80530;-63
2023/10/17 13:52:03;;;;;;;9.80;2.60;;;25.30;48.80;;;;;;6210926;28;80822;-64
2023/10/17 13:55:08;;;;;;;6.57;2.78;;;25.30;48.70;;;;;;6224909;28;80966;-64
2023/10/17 13:58:11;;;;;;;14.23;2.30;;;25.30;49.30;;;;;;6226016;28;81552;-63
2023/10/17 14:04:32;;;;;;;7.68;2.75;;;25.10;49.50;;;;;;6214102;28;80834;-62
2023/10/17 14:07:32;;;;;;;8.05;2.70;;;25.10;49.50;;;;;;6214135;28;81526;-62
2023/10/17 14:10:33;;;;;;;3.60;2.20;;;25.10;49.60;;;;;;6218148;28;80490;-61
2023/10/17 14:13:33;;;;;;;6.07;2.72;;;25.10;49.30;;;;;;6217609;28;83482;-60
2023/10/17 14:16:40;;;;;;;4.13;2.20;;;25.10;50.30;;;;;;6220002;28;80653;-60
2023/10/17 14:19:44;;;;;;;10.45;2.83;;;25.10;50.50;;;;;;6211957;28;81070;-60
2023/10/17 14:22:58;;;;;;;11.27;2.22;;;25.10;50.20;;;;;;6207539;28;80334;-60
2023/10/17 14:26:03;;;;;;;3.67;2.33;;;25.00;49.60;;;;;;6224818;28;80685;-60
2023/10/17 14:29:04;;;;;;;9.90;2.20;;;25.00;49.70;;;;;;6215895;28;82142;-60
2023/10/17 14:32:06;;;;;;;4.03;2.40;;;24.90;49.90;;;;;;6223042;27;81166;-60
2023/10/17 14:35:06;;;;;;;3.85;2.22;;;24.90;48.40;;;;;;6225696;28;80731;-63
2023/10/17 14:38:09;;;;;;;3.22;2.10;;;24.80;47.50;;;;;;6222884;28;81023;-64
2023/10/17 14:41:10;;;;;;;3.22;2.03;;;24.80;47.70;;;;;;6212193;28;82474;-64
2023/10/17 14:44:10;;;;;;;5.10;2.20;;;24.80;48.10;;;;;;6225762;28;81823;-61
2023/10/17 14:47:11;;;;;;;5.20;1.92;;;24.80;47.10;;;;;;6224006;27;80972;-64
2023/10/17 14:50:11;;;;;;;4.80;2.40;;;24.90;47.30;;;;;;6222785;28;81189;-66
2023/10/17 14:53:12;;;;;;;4.70;2.00;;;24.80;47.00;;;;;;6226696;28;80421;-64
2023/10/17 14:56:12;;;;;;;4.53;2.00;;;24.80;46.80;;;;;;6209509;28;80264;-64
2023/10/17 14:59:13;;;;;;;4.95;2.53;;;24.80;47.60;;;;;;6202775;28;80378;-65
2023/10/17 15:02:14;;;;;;;3.55;2.75;;;24.70;48.40;;;;;;6213122;28;80823;-66
2023/10/17 15:05:14;;;;;;;4.72;2.25;;;24.80;47.50;;;;;;6223741;28;80806;-66
2023/10/17 15:08:15;;;;;;;4.45;2.25;;;24.80;47.20;;;;;;6224617;28;80415;-63
2023/10/17 15:11:16;;;;;;;4.32;2.20;;;24.80;47.00;;;;;;6222830;28;80767;-63
2023/10/17 15:14:16;;;;;;;2.60;2.00;;;24.80;46.80;;;;;;6227006;28;81519;-61
2023/10/17 15:17:18;;;;;;;5.10;3.00;;;24.70;46.60;;;;;;6227758;27;82964;-62
2023/10/17 15:20:18;;;;;;;4.80;2.47;;;24.70;46.90;;;;;;6227746;28;82242;-60
2023/10/17 15:23:19;;;;;;;6.50;2.33;;;24.70;47.30;;;;;;6229674;28;81073;-62
2023/10/17 15:26:21;;;;;;;8.15;2.53;;;24.70;46.40;;;;;;6218130;28;83750;-60
2023/10/17 15:29:22;;;;;;;8.00;2.38;;;24.60;46.60;;;;;;6227980;27;80704;-61
2023/10/17 15:32:23;;;;;;;5.00;2.72;;;24.60;46.90;;;;;;6224379;28;80372;-60
2023/10/17 15:35:28;;;;;;;4.55;2.88;;;24.60;46.80;;;;;;6230851;28;84656;-62
2023/10/17 15:38:30;;;;;;;8.63;3.10;;;24.50;46.60;;;;;;6214664;27;80255;-61
2023/10/17 15:41:31;;;;;;;7.25;3.08;;;24.50;46.70;;;;;;6213985;28;80469;-61
2023/10/17 15:44:31;;;;;;;4.10;2.67;;;24.50;46.60;;;;;;6208744;28;82245;-62
2023/10/17 15:47:32;;;;;;;6.03;2.80;;;24.50;46.70;;;;;;6217323;28;84506;-67
2023/10/17 15:50:32;;;;;;;4.45;2.90;;;24.40;46.60;;;;;;6222678;28;80499;-68
2023/10/17 15:53:33;;;;;;;7.90;3.85;;;24.50;46.70;;;;;;6229788;27;80410;-67
2023/10/17 15:56:33;;;;;;;6.50;3.17;;;24.50;46.70;;;;;;6239169;27;80340;-65
2023/10/17 15:59:34;;;;;;;5.57;2.92;;;24.50;46.80;;;;;;6202839;28;84534;-65
2023/10/17 16:02:34;;;;;;;13.10;3.80;;;24.50;46.90;;;;;;6086144;28;82096;-65
2023/10/17 16:05:35;;;;;;;7.82;2.97;;;24.40;46.70;;;;;;6096921;28;81469;-64
2023/10/17 16:08:36;;;;;;;11.60;3.45;;;24.40;46.70;;;;;;6097880;28;82164;-64
2023/10/17 16:11:36;;;;;;;51.03;18.55;;;24.30;46.40;;;;;;6096862;27;81260;-67
2023/10/17 16:14:38;;;;;;;96.93;40.45;;;24.40;46.40;;;;;;6095030;28;83804;-66
2023/10/17 16:17:38;;;;;;;109.05;43.55;;;24.40;46.50;;;;;;6097606;28;84738;-63
2023/10/17 16:20:41;;;;;;;106.97;47.13;;;24.40;46.20;;;;;;6092578;28;84905;-63
2023/10/17 16:23:42;;;;;;;107.55;42.33;;;24.40;46.50;;;;;;6096157;28;85949;-65
2023/10/17 16:26:43;;;;;;;91.03;38.42;;;24.40;46.40;;;;;;6085605;28;83380;-58
2023/10/17 16:29:44;;;;;;;82.43;34.63;;;24.40;46.50;;;;;;6106098;27;84661;-59
2023/10/17 16:32:44;;;;;;;76.43;33.28;;;24.40;47.50;;;;;;6088885;28;85959;-57
2023/10/17 16:35:45;;;;;;;72.75;31.35;;;24.40;46.70;;;;;;6084058;28;84638;-58
2023/10/17 16:38:46;;;;;;;62.97;29.60;;;24.40;46.70;;;;;;6106857;27;83339;-58
2023/10/17 16:41:46;;;;;;;58.95;25.83;;;24.40;47.00;;;;;;6104203;28;85179;-57
2023/10/17 16:44:47;;;;;;;57.80;26.92;;;24.50;47.10;;;;;;6100611;28;90294;-59
2023/10/17 16:47:49;;;;;;;52.05;24.33;;;24.50;47.00;;;;;;6140192;28;83681;-58
2023/10/17 16:50:50;;;;;;;61.08;23.85;;;24.50;46.70;;;;;;6183693;28;83652;-59
2023/10/17 16:53:50;;;;;;;49.47;21.95;;;24.40;47.00;;;;;;6196988;28;86302;-60
2023/10/17 16:56:51;;;;;;;55.15;20.83;;;24.40;46.90;;;;;;6178470;28;84061;-58
2023/10/17 16:59:51;;;;;;;43.90;21.25;;;24.40;46.60;;;;;;6179643;28;84117;-61
2023/10/17 17:02:56;;;;;;;49.65;19.05;;;24.40;46.50;;;;;;6178413;28;85323;-61
2023/10/17 17:05:57;;;;;;;39.03;18.05;;;24.30;46.20;;;;;;6184992;28;87026;-59
2023/10/17 17:08:59;;;;;;;42.35;18.58;;;24.30;46.60;;;;;;6159981;28;87402;-60
2023/10/17 17:12:00;;;;;;;37.50;18.48;;;24.30;46.40;;;;;;6176682;28;84292;-60
2023/10/17 17:15:00;;;;;;;37.53;18.52;;;24.30;46.30;;;;;;6177091;28;85268;-60
2023/10/17 17:18:01;;;;;;;31.05;16.55;;;24.30;46.50;;;;;;6171403;28;86522;-60
2023/10/17 17:21:03;;;;;;;36.88;17.15;;;24.30;46.30;;;;;;6174023;28;84731;-61
2023/10/17 17:24:07;;;;;;;34.85;18.00;;;24.30;46.30;;;;;;6186013;28;83685;-61
2023/10/17 17:27:08;;;;;;;37.15;17.95;;;24.30;46.10;;;;;;6191927;28;85020;-61
2023/10/17 17:30:08;;;;;;;34.10;17.00;;;24.30;46.20;;;;;;6191527;27;83821;-62
2023/10/17 17:33:09;;;;;;;32.72;15.82;;;24.30;46.10;;;;;;6191323;28;89237;-61